Terminal Aerodrome Forecast
Issued by NWS

Home | Current Version | Previous Version | Text Only | Print | Product List | Glossary On
Versions: 1 2 3 4 5 6 7 8 9 10 11 12 13 14
000
FTUS44 KLZK 160500 RRA
TAFADF
TAF
KADF 160541Z 1606/1706 00000KT 5SM BR VCSH SCT050 OVC100
     FM161000 00000KT 4SM BR SCT020 OVC050
      TEMPO 1610/1614 2SM BR BKN020
     FM161500 06004KT P6SM SCT025 BKN060
     FM161900 06004KT P6SM SCT035 SCT250
     FM170100 10003KT P6SM SCT250=

USA.gov is the U.S. government's official web portal to all federal, state and local government web resources and services.